sensor_id;sensor_type;location;lat;lon;timestamp;pressure;altitude;pressure_sealevel;temperature;humidity
41140;BME280;26881;48.784;9.192;2023-01-31T00:04:49;99499.19;;;4.93;74.33
41140;BME280;26881;48.784;9.192;2023-01-31T00:10:11;99501.16;;;4.80;74.13
41140;BME280;26881;48.784;9.192;2023-01-31T00:15:33;99490.59;;;4.89;74.26
41140;BME280;26881;48.784;9.192;2023-01-31T00:20:55;99482.88;;;4.88;73.25
41140;BME280;26881;48.784;9.192;2023-01-31T00:26:24;99488.81;;;4.93;73.79
41140;BME280;26881;48.784;9.192;2023-01-31T00:31:46;99488.94;;;4.86;73.46
41140;BME280;26881;48.784;9.192;2023-01-31T00:37:07;99486.53;;;4.77;73.28
41140;BME280;26881;48.784;9.192;2023-01-31T00:42:29;99474.41;;;4.79;73.42
41140;BME280;26881;48.784;9.192;2023-01-31T00:47:51;99474.41;;;4.79;73.39
41140;BME280;26881;48.784;9.192;2023-01-31T00:53:13;99465.78;;;4.77;72.76
41140;BME280;26881;48.784;9.192;2023-01-31T00:58:35;99463.75;;;4.92;72.68
41140;BME280;26881;48.784;9.192;2023-01-31T01:03:57;99458.06;;;4.76;71.73
41140;BME280;26881;48.784;9.192;2023-01-31T01:09:19;99465.88;;;4.73;72.10
41140;BME280;26881;48.784;9.192;2023-01-31T01:14:43;99462.44;;;4.74;71.49
41140;BME280;26881;48.784;9.192;2023-01-31T01:20:05;99464.94;;;4.77;71.18
41140;BME280;26881;48.784;9.192;2023-01-31T01:25:29;99473.63;;;4.76;71.44
41140;BME280;26881;48.784;9.192;2023-01-31T01:30:51;99481.41;;;4.74;70.82
41140;BME280;26881;48.784;9.192;2023-01-31T01:36:14;99481.69;;;4.62;71.64
41140;BME280;26881;48.784;9.192;2023-01-31T01:41:42;99480.13;;;4.52;72.08
41140;BME280;26881;48.784;9.192;2023-01-31T01:47:15;99480.97;;;4.54;71.77
41140;BME280;26881;48.784;9.192;2023-01-31T01:52:52;99495.00;;;4.42;72.34
41140;BME280;26881;48.784;9.192;2023-01-31T01:58:19;99510.78;;;4.31;72.74
41140;BME280;26881;48.784;9.192;2023-01-31T02:03:44;99509.28;;;4.18;73.70
41140;BME280;26881;48.784;9.192;2023-01-31T02:09:08;99497.31;;;4.11;74.18
41140;BME280;26881;48.784;9.192;2023-01-31T02:14:32;99494.75;;;4.09;74.37
41140;BME280;26881;48.784;9.192;2023-01-31T02:20:17;99503.34;;;4.11;74.19
41140;BME280;26881;48.784;9.192;2023-01-31T02:31:46;99526.66;;;4.10;74.46
41140;BME280;26881;48.784;9.192;2023-01-31T02:43:16;99532.63;;;4.15;75.04
41140;BME280;26881;48.784;9.192;2023-01-31T02:49:16;99535.09;;;4.21;74.69
41140;BME280;26881;48.784;9.192;2023-01-31T02:55:11;99544.63;;;4.20;74.66
41140;BME280;26881;48.784;9.192;2023-01-31T03:00:56;99548.97;;;4.17;75.11
41140;BME280;26881;48.784;9.192;2023-01-31T03:12:18;99543.53;;;4.32;74.95
41140;BME280;26881;48.784;9.192;2023-01-31T03:18:03;99535.78;;;4.31;74.48
41140;BME280;26881;48.784;9.192;2023-01-31T03:23:28;99530.50;;;4.37;74.69
41140;BME280;26881;48.784;9.192;2023-01-31T03:28:53;99542.47;;;4.42;74.16
41140;BME280;26881;48.784;9.192;2023-01-31T03:34:18;99538.09;;;4.46;74.46
41140;BME280;26881;48.784;9.192;2023-01-31T03:40:01;99547.78;;;4.36;74.44
41140;BME280;26881;48.784;9.192;2023-01-31T03:45:37;99561.56;;;4.38;74.14
41140;BME280;26881;48.784;9.192;2023-01-31T03:51:05;99559.91;;;4.34;74.32
41140;BME280;26881;48.784;9.192;2023-01-31T03:56:33;99547.97;;;4.26;74.53
41140;BME280;26881;48.784;9.192;2023-01-31T04:01:58;99562.06;;;4.09;75.56
41140;BME280;26881;48.784;9.192;2023-01-31T04:07:22;99575.97;;;4.04;75.75
41140;BME280;26881;48.784;9.192;2023-01-31T04:12:45;99573.38;;;4.04;75.89
41140;BME280;26881;48.784;9.192;2023-01-31T04:18:07;99585.78;;;3.85;75.91
41140;BME280;26881;48.784;9.192;2023-01-31T04:23:29;99585.16;;;3.66;76.41
41140;BME280;26881;48.784;9.192;2023-01-31T04:28:50;99577.44;;;3.64;75.70
41140;BME280;26881;48.784;9.192;2023-01-31T04:34:12;99566.34;;;3.57;76.84
41140;BME280;26881;48.784;9.192;2023-01-31T04:39:34;99575.66;;;3.68;76.34
41140;BME280;26881;48.784;9.192;2023-01-31T04:44:56;99587.75;;;3.66;76.41
41140;BME280;26881;48.784;9.192;2023-01-31T04:50:17;99578.44;;;3.55;77.02
41140;BME280;26881;48.784;9.192;2023-01-31T04:55:39;99578.41;;;3.57;77.03
41140;BME280;26881;48.784;9.192;2023-01-31T05:01:01;99571.38;;;3.65;77.19
41140;BME280;26881;48.784;9.192;2023-01-31T05:06:23;99564.22;;;3.83;76.18
41140;BME280;26881;48.784;9.192;2023-01-31T05:11:44;99580.69;;;3.78;75.98
41140;BME280;26881;48.784;9.192;2023-01-31T05:17:07;99571.88;;;3.89;75.74
41140;BME280;26881;48.784;9.192;2023-01-31T05:22:29;99580.59;;;3.85;75.22
41140;BME280;26881;48.784;9.192;2023-01-31T05:27:51;99573.75;;;3.79;75.42
41140;BME280;26881;48.784;9.192;2023-01-31T05:33:13;99589.34;;;3.74;75.65
41140;BME280;26881;48.784;9.192;2023-01-31T05:38:35;99588.72;;;3.58;75.63
41140;BME280;26881;48.784;9.192;2023-01-31T05:43:57;99585.28;;;3.56;75.97
41140;BME280;26881;48.784;9.192;2023-01-31T05:49:19;99583.66;;;3.52;75.98
41140;BME280;26881;48.784;9.192;2023-01-31T05:54:41;99587.28;;;3.39;76.57
41140;BME280;26881;48.784;9.192;2023-01-31T06:00:03;99582.94;;;3.40;77.21
41140;BME280;26881;48.784;9.192;2023-01-31T06:05:25;99583.84;;;3.38;77.20
41140;BME280;26881;48.784;9.192;2023-01-31T06:10:47;99587.88;;;3.56;76.77
41140;BME280;26881;48.784;9.192;2023-01-31T06:16:09;99591.56;;;3.42;76.94
41140;BME280;26881;48.784;9.192;2023-01-31T06:21:31;99597.63;;;3.41;77.35
41140;BME280;26881;48.784;9.192;2023-01-31T06:26:53;99595.09;;;3.36;77.04
41140;BME280;26881;48.784;9.192;2023-01-31T06:32:15;99594.44;;;3.20;77.42
41140;BME280;26881;48.784;9.192;2023-01-31T06:37:37;99592.50;;;3.36;77.49
41140;BME280;26881;48.784;9.192;2023-01-31T06:42:58;99596.84;;;3.31;77.23
41140;BME280;26881;48.784;9.192;2023-01-31T06:48:20;99610.59;;;3.34;76.86
41140;BME280;26881;48.784;9.192;2023-01-31T06:53:42;99609.56;;;3.48;76.64
41140;BME280;26881;48.784;9.192;2023-01-31T06:59:04;99603.56;;;3.46;77.27
41140;BME280;26881;48.784;9.192;2023-01-31T07:04:25;99591.44;;;3.49;76.20
41140;BME280;26881;48.784;9.192;2023-01-31T07:09:47;99595.03;;;3.41;75.74
41140;BME280;26881;48.784;9.192;2023-01-31T07:15:09;99598.56;;;3.33;76.66
41140;BME280;26881;48.784;9.192;2023-01-31T07:20:31;99603.63;;;3.40;76.18
41140;BME280;26881;48.784;9.192;2023-01-31T07:25:53;99596.91;;;3.28;76.50
41140;BME280;26881;48.784;9.192;2023-01-31T07:31:15;99601.16;;;3.30;76.53
41140;BME280;26881;48.784;9.192;2023-01-31T07:36:37;99614.84;;;3.40;75.90
41140;BME280;26881;48.784;9.192;2023-01-31T07:41:59;99615.72;;;3.41;75.85
41140;BME280;26881;48.784;9.192;2023-01-31T07:47:20;99615.72;;;3.41;75.97
41140;BME280;26881;48.784;9.192;2023-01-31T07:52:42;99618.34;;;3.36;76.30
41140;BME280;26881;48.784;9.192;2023-01-31T07:58:04;99618.50;;;3.24;76.42
41140;BME280;26881;48.784;9.192;2023-01-31T08:03:28;99629.66;;;3.27;77.45
41140;BME280;26881;48.784;9.192;2023-01-31T08:08:54;99622.59;;;3.42;76.10
41140;BME280;26881;48.784;9.192;2023-01-31T08:14:16;99629.44;;;3.46;76.79
41140;BME280;26881;48.784;9.192;2023-01-31T08:19:37;99619.94;;;3.46;77.05
41140;BME280;26881;48.784;9.192;2023-01-31T08:24:59;99618.06;;;3.57;76.67
41140;BME280;26881;48.784;9.192;2023-01-31T08:30:21;99614.38;;;3.74;76.22
41140;BME280;26881;48.784;9.192;2023-01-31T08:35:43;99621.03;;;3.92;75.65
41140;BME280;26881;48.784;9.192;2023-01-31T08:41:05;99616.38;;;4.12;74.71
41140;BME280;26881;48.784;9.192;2023-01-31T08:46:29;99606.59;;;4.31;73.35
41140;BME280;26881;48.784;9.192;2023-01-31T08:51:52;99604.00;;;4.31;72.89
41140;BME280;26881;48.784;9.192;2023-01-31T08:57:13;99594.25;;;4.44;72.16
41140;BME280;26881;48.784;9.192;2023-01-31T09:02:35;99600.22;;;4.49;72.04
41140;BME280;26881;48.784;9.192;2023-01-31T09:07:57;99594.94;;;4.55;71.32
41140;BME280;26881;48.784;9.192;2023-01-31T09:13:19;99598.19;;;4.67;71.48
41140;BME280;26881;48.784;9.192;2023-01-31T09:18:41;99611.81;;;4.76;70.28
41140;BME280;26881;48.784;9.192;2023-01-31T09:24:03;99604.06;;;4.75;70.75
41140;BME280;26881;48.784;9.192;2023-01-31T09:29:25;99608.25;;;4.82;69.95
41140;BME280;26881;48.784;9.192;2023-01-31T09:34:49;99602.13;;;4.86;69.71
41140;BME280;26881;48.784;9.192;2023-01-31T09:40:16;99586.38;;;4.97;70.00
41140;BME280;26881;48.784;9.192;2023-01-31T09:45:43;99587.72;;;5.15;69.15
41140;BME280;26881;48.784;9.192;2023-01-31T09:51:09;99592.69;;;5.25;69.07
41140;BME280;26881;48.784;9.192;2023-01-31T09:56:40;99587.41;;;5.30;67.30
41140;BME280;26881;48.784;9.192;2023-01-31T10:07:59;99601.97;;;5.36;66.90
41140;BME280;26881;48.784;9.192;2023-01-31T10:13:29;99608.81;;;5.40;67.24
41140;BME280;26881;48.784;9.192;2023-01-31T10:19:21;99619.22;;;5.38;66.53
41140;BME280;26881;48.784;9.192;2023-01-31T10:24:54;99612.34;;;5.36;65.85
41140;BME280;26881;48.784;9.192;2023-01-31T10:30:22;99594.97;;;5.41;66.40
41140;BME280;26881;48.784;9.192;2023-01-31T10:35:47;99592.31;;;5.44;66.41
41140;BME280;26881;48.784;9.192;2023-01-31T10:41:17;99579.88;;;5.58;66.48
41140;BME280;26881;48.784;9.192;2023-01-31T10:46:41;99594.41;;;5.65;66.32
41140;BME280;26881;48.784;9.192;2023-01-31T10:57:34;99584.34;;;5.89;64.20
41140;BME280;26881;48.784;9.192;2023-01-31T11:02:56;99587.00;;;5.87;64.00
41140;BME280;26881;48.784;9.192;2023-01-31T11:08:44;99581.72;;;5.90;63.91
41140;BME280;26881;48.784;9.192;2023-01-31T11:14:16;99576.44;;;5.94;63.90
41140;BME280;26881;48.784;9.192;2023-01-31T11:19:50;99564.19;;;6.02;64.66
41140;BME280;26881;48.784;9.192;2023-01-31T11:25:19;99545.94;;;6.03;63.97
41140;BME280;26881;48.784;9.192;2023-01-31T11:30:49;99541.97;;;5.88;64.19
41140;BME280;26881;48.784;9.192;2023-01-31T11:36:14;99530.78;;;5.85;64.80
41140;BME280;26881;48.784;9.192;2023-01-31T11:41:36;99508.84;;;5.98;63.78
41140;BME280;26881;48.784;9.192;2023-01-31T11:47:04;99503.75;;;5.94;63.94
41140;BME280;26881;48.784;9.192;2023-01-31T11:52:32;99503.00;;;5.90;64.47
41140;BME280;26881;48.784;9.192;2023-01-31T11:57:57;99503.69;;;5.97;63.42
41140;BME280;26881;48.784;9.192;2023-01-31T12:03:20;99512.97;;;6.07;63.34
41140;BME280;26881;48.784;9.192;2023-01-31T12:08:42;99510.16;;;6.16;61.94
41140;BME280;26881;48.784;9.192;2023-01-31T12:14:15;99497.84;;;6.23;61.51
41140;BME280;26881;48.784;9.192;2023-01-31T12:19:48;99477.75;;;6.29;61.93
41140;BME280;26881;48.784;9.192;2023-01-31T12:25:45;99483.22;;;6.19;62.23
41140;BME280;26881;48.784;9.192;2023-01-31T12:42:38;99414.72;;;6.52;59.32
41140;BME280;26881;48.784;9.192;2023-01-31T12:48:18;99417.44;;;6.49;59.00
41140;BME280;26881;48.784;9.192;2023-01-31T12:54:01;99418.59;;;6.39;59.36
41140;BME280;26881;48.784;9.192;2023-01-31T13:05:24;99425.94;;;6.25;60.05
41140;BME280;26881;48.784;9.192;2023-01-31T13:10:57;99400.56;;;6.33;59.73
41140;BME280;26881;48.784;9.192;2023-01-31T13:16:47;99407.69;;;6.26;60.05
41140;BME280;26881;48.784;9.192;2023-01-31T13:22:44;99411.22;;;6.24;59.75
41140;BME280;26881;48.784;9.192;2023-01-31T13:33:59;99398.63;;;6.10;60.36
41140;BME280;26881;48.784;9.192;2023-01-31T13:44:53;99395.63;;;5.93;61.23
41140;BME280;26881;48.784;9.192;2023-01-31T13:50:29;99411.03;;;5.99;61.42
41140;BME280;26881;48.784;9.192;2023-01-31T13:55:53;99386.72;;;6.01;61.36
41140;BME280;26881;48.784;9.192;2023-01-31T14:01:24;99405.16;;;5.92;60.87
41140;BME280;26881;48.784;9.192;2023-01-31T14:07:13;99408.66;;;5.89;61.55
41140;BME280;26881;48.784;9.192;2023-01-31T14:12:36;99398.44;;;5.83;61.47
41140;BME280;26881;48.784;9.192;2023-01-31T14:17:59;99377.72;;;5.82;61.30
41140;BME280;26881;48.784;9.192;2023-01-31T14:23:31;99330.97;;;5.83;62.35
41140;BME280;26881;48.784;9.192;2023-01-31T14:29:24;99366.91;;;5.99;61.37
41140;BME280;26881;48.784;9.192;2023-01-31T14:34:47;99367.66;;;6.04;61.55
41140;BME280;26881;48.784;9.192;2023-01-31T14:57:41;99359.84;;;6.04;61.71
41140;BME280;26881;48.784;9.192;2023-01-31T15:03:11;99342.59;;;6.01;62.14
41140;BME280;26881;48.784;9.192;2023-01-31T15:08:45;99336.50;;;6.02;61.62
41140;BME280;26881;48.784;9.192;2023-01-31T15:20:02;99376.91;;;6.12;62.29
41140;BME280;26881;48.784;9.192;2023-01-31T15:25:32;99375.38;;;6.05;61.89
41140;BME280;26881;48.784;9.192;2023-01-31T15:31:03;99378.78;;;6.07;62.04
41140;BME280;26881;48.784;9.192;2023-01-31T15:36:34;99373.72;;;6.03;62.22
41140;BME280;26881;48.784;9.192;2023-01-31T15:41:57;99366.72;;;6.06;62.75
41140;BME280;26881;48.784;9.192;2023-01-31T15:47:20;99365.13;;;6.01;62.38
41140;BME280;26881;48.784;9.192;2023-01-31T15:52:43;99355.56;;;6.01;62.37
41140;BME280;26881;48.784;9.192;2023-01-31T15:58:06;99351.13;;;6.06;62.59
41140;BME280;26881;48.784;9.192;2023-01-31T16:03:38;99367.72;;;6.01;62.07
41140;BME280;26881;48.784;9.192;2023-01-31T16:09:03;99378.94;;;6.01;63.47
41140;BME280;26881;48.784;9.192;2023-01-31T16:14:26;99377.47;;;5.91;63.44
41140;BME280;26881;48.784;9.192;2023-01-31T16:19:48;99374.78;;;5.96;64.33
41140;BME280;26881;48.784;9.192;2023-01-31T16:25:16;99383.47;;;5.93;63.74
41140;BME280;26881;48.784;9.192;2023-01-31T16:30:40;99390.69;;;5.82;64.21
41140;BME280;26881;48.784;9.192;2023-01-31T16:36:13;99392.47;;;5.80;65.05
41140;BME280;26881;48.784;9.192;2023-01-31T16:41:45;99390.81;;;5.77;65.22
41140;BME280;26881;48.784;9.192;2023-01-31T16:47:44;99393.31;;;5.80;64.75
41140;BME280;26881;48.784;9.192;2023-01-31T16:53:31;99397.66;;;5.80;65.93
41140;BME280;26881;48.784;9.192;2023-01-31T16:58:57;99404.50;;;5.84;65.71
41140;BME280;26881;48.784;9.192;2023-01-31T17:04:20;99409.53;;;5.90;65.42
41140;BME280;26881;48.784;9.192;2023-01-31T17:09:42;99408.00;;;5.83;65.70
41140;BME280;26881;48.784;9.192;2023-01-31T17:15:15;99402.50;;;5.95;65.20
41140;BME280;26881;48.784;9.192;2023-01-31T17:20:43;99418.16;;;5.90;65.26
41140;BME280;26881;48.784;9.192;2023-01-31T17:26:12;99402.50;;;5.94;64.94
41140;BME280;26881;48.784;9.192;2023-01-31T17:31:35;99399.81;;;5.98;64.99
41140;BME280;26881;48.784;9.192;2023-01-31T17:36:57;99402.13;;;6.09;64.27
41140;BME280;26881;48.784;9.192;2023-01-31T17:42:19;99393.53;;;6.05;63.94
41140;BME280;26881;48.784;9.192;2023-01-31T17:47:42;99385.03;;;6.00;64.65
41140;BME280;26881;48.784;9.192;2023-01-31T17:53:04;99377.03;;;6.08;63.96
41140;BME280;26881;48.784;9.192;2023-01-31T17:58:26;99372.16;;;5.97;64.68
41140;BME280;26881;48.784;9.192;2023-01-31T18:03:47;99378.19;;;5.98;65.14
41140;BME280;26881;48.784;9.192;2023-01-31T18:09:11;99367.03;;;5.94;65.15
41140;BME280;26881;48.784;9.192;2023-01-31T18:14:33;99360.00;;;5.98;64.44
41140;BME280;26881;48.784;9.192;2023-01-31T18:19:55;99355.66;;;5.98;64.18
41140;BME280;26881;48.784;9.192;2023-01-31T18:25:17;99342.69;;;5.98;64.81
41140;BME280;26881;48.784;9.192;2023-01-31T18:30:39;99340.00;;;6.01;64.03
41140;BME280;26881;48.784;9.192;2023-01-31T18:36:01;99345.19;;;6.01;65.04
41140;BME280;26881;48.784;9.192;2023-01-31T18:41:23;99344.31;;;6.02;64.48
41140;BME280;26881;48.784;9.192;2023-01-31T18:46:45;99339.00;;;6.05;64.69
41140;BME280;26881;48.784;9.192;2023-01-31T18:52:07;99337.34;;;6.03;65.08
41140;BME280;26881;48.784;9.192;2023-01-31T18:57:29;99351.03;;;6.09;64.87
41140;BME280;26881;48.784;9.192;2023-01-31T19:02:52;99361.41;;;6.09;64.94
41140;BME280;26881;48.784;9.192;2023-01-31T19:08:14;99357.25;;;6.04;65.14
41140;BME280;26881;48.784;9.192;2023-01-31T19:13:36;99342.47;;;6.06;65.33
41140;BME280;26881;48.784;9.192;2023-01-31T19:18:58;99354.78;;;5.99;65.74
41140;BME280;26881;48.784;9.192;2023-01-31T19:24:20;99348.69;;;6.00;66.14
41140;BME280;26881;48.784;9.192;2023-01-31T19:29:42;99352.13;;;6.01;66.26
41140;BME280;26881;48.784;9.192;2023-01-31T19:35:04;99362.34;;;6.07;66.39
41140;BME280;26881;48.784;9.192;2023-01-31T19:40:26;99358.84;;;6.08;66.79
41140;BME280;26881;48.784;9.192;2023-01-31T19:45:48;99343.06;;;6.16;66.77
41140;BME280;26881;48.784;9.192;2023-01-31T19:51:16;99353.75;;;6.05;67.22
41140;BME280;26881;48.784;9.192;2023-01-31T19:56:38;99339.00;;;6.05;67.50
41140;BME280;26881;48.784;9.192;2023-01-31T20:01:59;99334.53;;;6.10;67.64
41140;BME280;26881;48.784;9.192;2023-01-31T20:07:21;99322.94;;;5.91;68.05
41140;BME280;26881;48.784;9.192;2023-01-31T20:12:43;99310.78;;;5.93;68.26
41140;BME280;26881;48.784;9.192;2023-01-31T20:18:06;99311.84;;;5.86;69.09
41140;BME280;26881;48.784;9.192;2023-01-31T20:23:27;99341.34;;;5.83;69.07
41140;BME280;26881;48.784;9.192;2023-01-31T20:28:49;99346.72;;;5.76;69.82
41140;BME280;26881;48.784;9.192;2023-01-31T20:34:11;99356.81;;;5.86;69.68
41140;BME280;26881;48.784;9.192;2023-01-31T20:39:33;99357.88;;;5.79;70.36
41140;BME280;26881;48.784;9.192;2023-01-31T20:44:55;99357.84;;;5.81;70.58
41140;BME280;26881;48.784;9.192;2023-01-31T20:50:17;99359.63;;;5.79;70.50
41140;BME280;26881;48.784;9.192;2023-01-31T20:55:38;99362.00;;;5.86;70.48
41140;BME280;26881;48.784;9.192;2023-01-31T21:01:00;99352.13;;;6.01;70.70
41140;BME280;26881;48.784;9.192;2023-01-31T21:06:26;99341.03;;;5.96;70.59
41140;BME280;26881;48.784;9.192;2023-01-31T21:11:48;99321.91;;;5.98;70.63
41140;BME280;26881;48.784;9.192;2023-01-31T21:17:10;99312.31;;;6.02;70.46
41140;BME280;26881;48.784;9.192;2023-01-31T21:22:31;99287.41;;;5.95;70.98
41140;BME280;26881;48.784;9.192;2023-01-31T21:27:54;99290.94;;;5.90;70.95
41140;BME280;26881;48.784;9.192;2023-01-31T21:33:16;99285.25;;;5.78;71.63
41140;BME280;26881;48.784;9.192;2023-01-31T21:38:39;99306.66;;;5.86;71.50
41140;BME280;26881;48.784;9.192;2023-01-31T21:44:01;99290.31;;;5.82;71.71
41140;BME280;26881;48.784;9.192;2023-01-31T21:49:23;99296.63;;;5.74;72.29
41140;BME280;26881;48.784;9.192;2023-01-31T21:54:45;99313.16;;;5.69;72.66
41140;BME280;26881;48.784;9.192;2023-01-31T22:00:07;99317.38;;;5.74;72.81
41140;BME280;26881;48.784;9.192;2023-01-31T22:05:30;99308.56;;;5.79;72.72
41140;BME280;26881;48.784;9.192;2023-01-31T22:10:59;99331.91;;;5.81;72.32
41140;BME280;26881;48.784;9.192;2023-01-31T22:16:21;99338.69;;;5.85;72.38
41140;BME280;26881;48.784;9.192;2023-01-31T22:21:43;99336.78;;;5.91;72.71
41140;BME280;26881;48.784;9.192;2023-01-31T22:27:05;99355.69;;;5.97;72.34
41140;BME280;26881;48.784;9.192;2023-01-31T22:32:27;99361.75;;;5.97;72.00
41140;BME280;26881;48.784;9.192;2023-01-31T22:37:49;99360.09;;;5.95;72.36
41140;BME280;26881;48.784;9.192;2023-01-31T22:43:12;99360.72;;;6.03;72.00
41140;BME280;26881;48.784;9.192;2023-01-31T22:48:35;99359.97;;;5.99;72.31
41140;BME280;26881;48.784;9.192;2023-01-31T22:53:57;99341.16;;;5.89;73.33
41140;BME280;26881;48.784;9.192;2023-01-31T22:59:19;99331.72;;;5.87;74.25
41140;BME280;26881;48.784;9.192;2023-01-31T23:04:41;99325.69;;;5.85;74.52
41140;BME280;26881;48.784;9.192;2023-01-31T23:10:03;99321.50;;;5.81;75.28
41140;BME280;26881;48.784;9.192;2023-01-31T23:15:25;99295.72;;;5.75;75.42
41140;BME280;26881;48.784;9.192;2023-01-31T23:20:47;99300.22;;;5.68;77.35
41140;BME280;26881;48.784;9.192;2023-01-31T23:26:09;99293.13;;;5.75;76.93
41140;BME280;26881;48.784;9.192;2023-01-31T23:31:31;99275.38;;;5.59;76.92
41140;BME280;26881;48.784;9.192;2023-01-31T23:36:53;99278.19;;;5.83;75.92
41140;BME280;26881;48.784;9.192;2023-01-31T23:42:15;99262.75;;;5.78;76.17
41140;BME280;26881;48.784;9.192;2023-01-31T23:47:37;99258.34;;;5.80;76.71
41140;BME280;26881;48.784;9.192;2023-01-31T23:53:03;99252.75;;;5.64;76.71
41140;BME280;26881;48.784;9.192;2023-01-31T23:58:25;99259.72;;;5.62;77.21
